createdAt,value
2016-02-23T00:00:29.325Z,24.61
2016-02-23T00:01:29.313Z,24.63
2016-02-23T00:02:29.284Z,24.67
2016-02-23T00:03:29.272Z,24.67
2016-02-23T00:04:29.258Z,24.6
2016-02-23T00:05:29.238Z,24.61
2016-02-23T00:06:29.225Z,24.61
2016-02-23T00:07:29.212Z,24.63
2016-02-23T00:08:29.183Z,24.63
2016-02-23T00:09:29.172Z,24.64
2016-02-23T00:10:29.142Z,24.71
2016-02-23T00:11:29.129Z,24.68
2016-02-23T00:12:29.117Z,24.61
2016-02-23T00:13:29.103Z,24.63
2016-02-23T00:14:29.091Z,24.63
2016-02-23T00:15:29.062Z,24.71
2016-02-23T00:16:29.033Z,24.63
2016-02-23T00:17:29.021Z,24.69
2016-02-23T00:18:29.007Z,24.63
2016-02-23T00:19:28.979Z,24.59
2016-02-23T00:20:28.966Z,24.67
2016-02-23T00:21:28.954Z,24.61
2016-02-23T00:22:28.936Z,24.67
2016-02-23T00:23:28.897Z,24.56
2016-02-23T00:24:28.888Z,24.6
2016-02-23T00:25:28.879Z,24.6
2016-02-23T00:26:28.824Z,24.61
2016-02-23T00:27:28.787Z,24.63
2016-02-23T00:28:28.769Z,24.64
2016-02-23T00:29:28.737Z,24.64
2016-02-23T00:30:28.720Z,24.75
2016-02-23T00:31:28.703Z,24.69
2016-02-23T00:32:28.687Z,24.63
2016-02-23T00:33:28.657Z,24.63
2016-02-23T00:34:28.627Z,24.64
2016-02-23T00:35:28.614Z,24.63
2016-02-23T00:36:28.599Z,24.61
2016-02-23T00:37:28.584Z,24.6
2016-02-23T00:38:28.555Z,24.63
2016-02-23T00:39:28.557Z,24.61
2016-02-23T00:40:28.529Z,24.63
2016-02-23T00:41:28.499Z,24.69
2016-02-23T00:42:28.492Z,24.59
2016-02-23T00:43:28.479Z,24.71
2016-02-23T00:44:28.451Z,24.73
2016-02-23T00:45:28.437Z,24.87
2016-02-23T00:46:28.426Z,24.82
2016-02-23T00:47:28.397Z,24.83
2016-02-23T00:48:28.383Z,24.9
2016-02-23T00:49:28.371Z,24.94
2016-02-23T00:50:28.326Z,25.01
2016-02-23T00:51:28.328Z,25.15
2016-02-23T00:52:28.300Z,25.2
2016-02-23T00:53:28.288Z,25.25
2016-02-23T00:54:28.275Z,25.3
2016-02-23T00:55:28.262Z,25.28
2016-02-23T00:56:28.233Z,25.38
2016-02-23T00:57:28.220Z,25.44
2016-02-23T00:58:28.208Z,25.37
2016-02-23T00:59:28.179Z,25.47
2016-02-23T01:00:28.166Z,25.44
2016-02-23T01:01:28.138Z,25.38
2016-02-23T01:02:28.124Z,25.37
2016-02-23T01:03:28.268Z,25.27
2016-02-23T01:04:28.099Z,25.32
2016-02-23T01:05:28.101Z,25.28
2016-02-23T01:06:28.073Z,25.13
2016-02-23T01:07:28.044Z,25.15
2016-02-23T01:08:28.031Z,25.13
2016-02-23T01:09:28.002Z,25.13
2016-02-23T01:10:27.990Z,25.15
2016-02-23T01:11:27.976Z,25.06
2016-02-23T01:12:27.965Z,25.05
2016-02-23T01:13:27.935Z,25.02
2016-02-23T01:14:27.922Z,25
2016-02-23T01:15:27.925Z,25.01
2016-02-23T01:16:27.881Z,25.01
2016-02-23T01:17:27.884Z,25
2016-02-23T01:18:27.839Z,24.94
2016-02-23T01:19:27.873Z,24.92
2016-02-23T01:20:27.814Z,24.95
2016-02-23T01:21:27.817Z,24.91
2016-02-23T01:22:27.772Z,24.85
2016-02-23T01:23:27.759Z,24.88
2016-02-23T01:24:27.933Z,24.77
2016-02-23T01:25:27.718Z,24.77
2016-02-23T01:26:27.720Z,24.76
2016-02-23T01:27:27.691Z,24.87
2016-02-23T01:28:27.663Z,24.77
2016-02-23T01:29:27.697Z,24.79
2016-02-23T01:30:27.638Z,24.76
2016-02-23T01:31:27.624Z,24.75
2016-02-23T01:32:27.596Z,24.77
2016-02-23T01:33:27.583Z,24.68
2016-02-23T01:34:27.570Z,24.79
2016-02-23T01:35:27.572Z,24.83
2016-02-23T01:36:27.528Z,24.75
2016-02-23T01:37:27.516Z,24.83
2016-02-23T01:38:27.502Z,24.75
2016-02-23T01:39:27.505Z,24.82
2016-02-23T01:40:27.461Z,24.79
2016-02-23T01:41:27.432Z,24.68
2016-02-23T01:42:27.420Z,24.68
2016-02-23T01:43:27.407Z,24.76
2016-02-23T01:44:27.378Z,24.8
2016-02-23T01:45:27.365Z,24.71
2016-02-23T01:46:27.352Z,24.8
2016-02-23T01:47:27.339Z,24.77
2016-02-23T01:48:27.311Z,24.68
2016-02-23T01:49:27.314Z,24.75
2016-02-23T01:50:27.284Z,24.73
2016-02-23T01:51:27.272Z,24.69
2016-02-23T01:52:27.259Z,24.64
2016-02-23T01:53:27.230Z,24.75
2016-02-23T01:54:27.202Z,24.69
2016-02-23T01:55:27.189Z,24.69
2016-02-23T01:56:27.175Z,24.77
2016-02-23T01:57:27.179Z,24.68
2016-02-23T01:58:27.150Z,24.82
2016-02-23T01:59:27.136Z,24.83
2016-02-23T02:00:27.109Z,24.79
2016-02-23T02:01:27.080Z,24.79
2016-02-23T02:02:27.066Z,24.71
2016-02-23T02:03:27.054Z,24.75
2016-02-23T02:04:27.025Z,24.68
2016-02-23T02:05:27.013Z,24.73
2016-02-23T02:06:26.985Z,24.68
2016-02-23T02:07:26.971Z,24.73
2016-02-23T02:08:26.958Z,24.67
2016-02-23T02:09:26.946Z,24.57
2016-02-23T02:10:26.932Z,24.64
2016-02-23T02:11:26.918Z,24.67
2016-02-23T02:12:26.891Z,24.61
2016-02-23T02:13:26.893Z,24.61
2016-02-23T02:14:26.849Z,24.59
2016-02-23T02:15:26.852Z,24.67
2016-02-23T02:16:26.807Z,24.59
2016-02-23T02:17:26.795Z,24.64
2016-02-23T02:18:26.782Z,24.57
2016-02-23T02:19:26.753Z,24.6
2016-02-23T02:20:26.740Z,24.71
2016-02-23T02:21:26.728Z,24.73
2016-02-23T02:22:26.715Z,24.75
2016-02-23T02:23:26.686Z,24.75
2016-02-23T02:24:26.673Z,24.75
2016-02-23T02:25:26.645Z,24.75
2016-02-23T02:26:26.631Z,24.68
2016-02-23T02:27:26.619Z,24.64
2016-02-23T02:28:26.622Z,24.68
2016-02-23T02:29:26.592Z,24.69
2016-02-23T02:30:26.569Z,24.67
2016-02-23T02:31:26.556Z,24.61
2016-02-23T02:32:26.527Z,24.68
2016-02-23T02:33:26.530Z,24.59
2016-02-23T02:34:26.486Z,24.61
2016-02-23T02:35:26.473Z,24.6
2016-02-23T02:36:26.444Z,24.56
2016-02-23T02:37:26.432Z,24.61
2016-02-23T02:38:26.418Z,24.6
2016-02-23T02:39:26.407Z,24.61
2016-02-23T02:40:26.393Z,24.69
2016-02-23T02:41:26.364Z,24.75
2016-02-23T02:42:26.352Z,24.71
2016-02-23T02:43:26.338Z,24.73
2016-02-23T02:44:26.309Z,24.69
2016-02-23T02:45:26.297Z,24.67
2016-02-23T02:46:26.268Z,24.71
2016-02-23T02:47:26.255Z,24.6
2016-02-23T02:48:26.243Z,24.69
2016-02-23T02:49:26.229Z,24.63
2016-02-23T02:50:26.200Z,24.68
2016-02-23T02:51:26.189Z,24.64
2016-02-23T02:52:26.159Z,24.61
2016-02-23T02:53:26.146Z,24.57
2016-02-23T02:54:26.134Z,24.73
2016-02-23T02:55:26.105Z,24.61
2016-02-23T02:56:26.092Z,24.67
2016-02-23T02:57:26.080Z,24.68
2016-02-23T02:58:26.050Z,24.63
2016-02-23T02:59:26.038Z,24.64
2016-02-23T03:00:26.025Z,24.69
2016-02-23T03:01:25.996Z,24.69
2016-02-23T03:02:25.983Z,24.67
2016-02-23T03:03:25.971Z,24.71
2016-02-23T03:04:25.974Z,24.68
2016-02-23T03:05:25.944Z,24.61
2016-02-23T03:06:25.916Z,24.67
2016-02-23T03:07:25.888Z,24.63
2016-02-23T03:08:25.874Z,24.61
2016-02-23T03:09:25.862Z,24.63
2016-02-23T03:10:25.848Z,24.63
2016-02-23T03:11:25.820Z,24.61
2016-02-23T03:12:25.822Z,24.61
2016-02-23T03:13:25.779Z,24.6
2016-02-23T03:14:25.765Z,24.64
2016-02-23T03:15:25.753Z,24.63
2016-02-23T03:16:25.740Z,24.57
2016-02-23T03:17:25.711Z,24.56
2016-02-23T03:18:25.698Z,24.61
2016-02-23T03:19:25.670Z,24.6
2016-02-23T03:20:25.656Z,24.67
2016-02-23T03:21:25.644Z,24.64
2016-02-23T03:22:25.631Z,24.64
2016-02-23T03:23:25.602Z,24.67
2016-02-23T03:24:25.590Z,24.63
2016-02-23T03:25:25.561Z,24.67
2016-02-23T03:26:25.547Z,24.71
2016-02-23T03:27:25.536Z,24.71
2016-02-23T03:28:25.506Z,24.76
2016-02-23T03:29:25.494Z,24.82
2016-02-23T03:30:25.464Z,24.83
2016-02-23T03:31:25.467Z,24.79
2016-02-23T03:32:25.438Z,24.87
2016-02-23T03:33:25.427Z,24.95
2016-02-23T03:34:25.413Z,24.98
2016-02-23T03:35:25.384Z,25.06
2016-02-23T03:36:25.372Z,25.06
2016-02-23T03:37:25.358Z,25.16
2016-02-23T03:38:25.330Z,25.2
2016-02-23T03:39:25.317Z,25.24
2016-02-23T03:40:25.304Z,25.2
2016-02-23T03:41:25.291Z,25.37
2016-02-23T03:42:25.310Z,25.37
2016-02-23T03:43:25.249Z,25.35
2016-02-23T03:44:25.252Z,25.44
2016-02-23T03:45:25.208Z,25.54
2016-02-23T03:46:25.196Z,25.54
2016-02-23T03:47:25.182Z,25.39
2016-02-23T03:48:25.184Z,25.44
2016-02-23T03:49:25.141Z,25.52
2016-02-23T03:50:25.128Z,25.46
2016-02-23T03:51:25.115Z,25.34
2016-02-23T03:52:24.931Z,25.37
2016-02-23T03:53:25.073Z,25.28
2016-02-23T03:54:25.061Z,25.22
2016-02-23T03:55:25.032Z,25.16
2016-02-23T03:56:25.019Z,25.13
2016-02-23T03:57:25.021Z,25.01
2016-02-23T03:58:25.025Z,25.02
2016-02-23T03:59:24.980Z,25.06
2016-02-23T04:00:24.967Z,25.06
2016-02-23T04:01:24.955Z,25.01
2016-02-23T04:02:24.910Z,25.05
2016-02-23T04:03:24.897Z,24.92
2016-02-23T04:04:24.885Z,24.92
2016-02-23T04:05:24.871Z,24.9
2016-02-23T04:06:24.858Z,24.91
2016-02-23T04:07:24.830Z,24.92
2016-02-23T04:08:24.816Z,24.97
2016-02-23T04:09:24.804Z,24.9
2016-02-23T04:10:24.791Z,24.95
2016-02-23T04:11:24.763Z,24.91
2016-02-23T04:12:24.734Z,24.83
2016-02-23T04:13:24.721Z,24.8
2016-02-23T04:14:24.708Z,24.8
2016-02-23T04:15:24.679Z,24.8
2016-02-23T04:16:24.667Z,24.8
2016-02-23T04:17:24.654Z,24.8
2016-02-23T04:18:24.640Z,24.77
2016-02-23T04:19:24.612Z,24.83
2016-02-23T04:20:24.599Z,24.73
2016-02-23T04:21:24.586Z,24.82
2016-02-23T04:22:24.417Z,24.8
2016-02-23T04:23:24.545Z,24.76
2016-02-23T04:24:24.531Z,24.75
2016-02-23T04:25:24.503Z,24.79
2016-02-23T04:26:24.490Z,24.76
2016-02-23T04:27:24.477Z,24.79
2016-02-23T04:28:24.465Z,24.77
2016-02-23T04:29:24.436Z,24.71
2016-02-23T04:30:24.407Z,24.77
2016-02-23T04:31:24.411Z,24.77
2016-02-23T04:32:24.381Z,24.76
2016-02-23T04:33:24.353Z,24.91
2016-02-23T04:34:24.341Z,24.79
2016-02-23T04:35:24.327Z,24.75
2016-02-23T04:36:24.314Z,24.71
2016-02-23T04:37:24.302Z,24.76
2016-02-23T04:38:24.257Z,24.71
2016-02-23T04:39:24.290Z,24.68
2016-02-23T04:40:24.231Z,24.64
2016-02-23T04:41:24.249Z,24.57
2016-02-23T04:42:24.205Z,24.61
2016-02-23T04:43:24.223Z,24.63
2016-02-23T04:44:24.163Z,24.68
2016-02-23T04:45:24.151Z,24.68
2016-02-23T04:46:24.123Z,24.6
2016-02-23T04:47:24.110Z,24.6
2016-02-23T04:48:24.096Z,24.76
2016-02-23T04:49:24.083Z,24.67
2016-02-23T04:50:24.071Z,24.6
2016-02-23T04:51:24.042Z,24.73
2016-02-23T04:52:24.028Z,24.71
2016-02-23T04:53:24.001Z,24.6
2016-02-23T04:54:23.987Z,24.71
2016-02-23T04:55:23.975Z,24.71
2016-02-23T04:56:24.040Z,24.77
2016-02-23T04:57:23.933Z,24.59
2016-02-23T04:58:23.920Z,24.64
2016-02-23T04:59:23.892Z,24.67
2016-02-23T05:00:23.878Z,24.63
2016-02-23T05:01:23.897Z,24.6
2016-02-23T05:02:23.836Z,24.64
2016-02-23T05:03:23.809Z,24.69
2016-02-23T05:04:23.811Z,24.59
2016-02-23T05:05:23.939Z,24.61
2016-02-23T05:06:23.769Z,24.61
2016-02-23T05:07:23.757Z,24.54
2016-02-23T05:08:23.744Z,24.69
2016-02-23T05:09:23.716Z,24.64
2016-02-23T05:10:23.702Z,24.61
2016-02-23T05:11:23.673Z,24.59
2016-02-23T05:12:23.677Z,24.69
2016-02-23T05:13:23.648Z,24.67
2016-02-23T05:14:23.619Z,24.59
2016-02-23T05:15:23.622Z,24.71
2016-02-23T05:16:23.578Z,24.69
2016-02-23T05:17:23.596Z,24.68
2016-02-23T05:18:23.552Z,24.63
2016-02-23T05:19:23.554Z,24.6
2016-02-23T05:20:23.510Z,24.61
2016-02-23T05:21:23.513Z,24.67
2016-02-23T05:22:23.484Z,24.68
2016-02-23T05:23:23.503Z,24.63
2016-02-23T05:24:23.443Z,24.6
2016-02-23T05:25:23.462Z,24.73
2016-02-23T05:26:23.417Z,24.57
2016-02-23T05:27:23.404Z,24.64
2016-02-23T05:28:23.375Z,24.64
2016-02-23T05:29:23.363Z,24.59
2016-02-23T05:30:23.334Z,24.68
2016-02-23T05:31:23.337Z,24.56
2016-02-23T05:32:23.292Z,24.57
2016-02-23T05:33:23.280Z,24.67
2016-02-23T05:34:23.267Z,24.6
2016-02-23T05:35:23.269Z,24.69
2016-02-23T05:36:23.225Z,24.68
2016-02-23T05:37:23.244Z,24.63
2016-02-23T05:38:23.200Z,24.69
2016-02-23T05:39:23.218Z,24.57
2016-02-23T05:40:23.174Z,24.69
2016-02-23T05:41:23.332Z,24.6
2016-02-23T05:42:23.117Z,24.59
2016-02-23T05:43:23.119Z,24.63
2016-02-23T05:44:23.122Z,24.69
2016-02-23T05:45:23.109Z,24.57
2016-02-23T05:46:23.159Z,24.59
2016-02-23T05:47:23.162Z,24.63
2016-02-23T05:48:23.179Z,24.54
2016-02-23T05:49:23.120Z,24.52
2016-02-23T05:50:23.076Z,24.53
2016-02-23T05:51:23.172Z,24.59
2016-02-23T05:52:23.113Z,24.49
2016-02-23T05:53:22.990Z,24.61
2016-02-23T05:54:23.008Z,24.6
2016-02-23T05:55:22.933Z,24.61
2016-02-23T05:56:22.951Z,24.53
2016-02-23T05:57:23.047Z,24.57
2016-02-23T05:58:22.894Z,24.6
2016-02-23T05:59:22.865Z,24.6
2016-02-23T06:00:23.039Z,24.57
2016-02-23T06:01:22.778Z,24.54
2016-02-23T06:02:22.842Z,24.52
2016-02-23T06:03:22.875Z,24.54
2016-02-23T06:04:22.738Z,24.52
2016-02-23T06:05:22.725Z,24.54
2016-02-23T06:06:22.838Z,24.49
2016-02-23T06:07:22.668Z,24.53
2016-02-23T06:08:22.702Z,24.52
2016-02-23T06:09:22.689Z,24.61
2016-02-23T06:10:22.677Z,24.64
2016-02-23T06:11:22.616Z,24.59
2016-02-23T06:12:22.666Z,24.76
2016-02-23T06:13:22.560Z,24.76
2016-02-23T06:14:22.577Z,24.79
2016-02-23T06:15:22.533Z,24.83
2016-02-23T06:16:22.521Z,24.9
2016-02-23T06:17:22.570Z,24.97
2016-02-23T06:18:22.574Z,25.05
2016-02-23T06:19:22.544Z,25.05
2016-02-23T06:20:22.438Z,25.17
2016-02-23T06:21:22.424Z,25.07
2016-02-23T06:22:22.427Z,25.07
2016-02-23T06:23:22.398Z,25.15
2016-02-23T06:24:22.386Z,25.22
2016-02-23T06:25:22.357Z,25.25
2016-02-23T06:26:22.687Z,25.25
2016-02-23T06:27:25.504Z,25.31
2016-02-23T06:28:22.303Z,25.25
2016-02-23T06:29:22.384Z,25.24
2016-02-23T06:30:22.511Z,25.19
2016-02-23T06:31:22.248Z,25.16
2016-02-23T06:32:22.220Z,25.19
2016-02-23T06:33:22.206Z,25.15
2016-02-23T06:34:22.241Z,25.13
2016-02-23T06:35:22.181Z,25.01
2016-02-23T06:36:22.247Z,25.05
2016-02-23T06:37:22.172Z,25.06
2016-02-23T06:38:22.283Z,25.05
2016-02-23T06:39:22.129Z,25
2016-02-23T06:40:22.304Z,25.06
2016-02-23T06:41:22.088Z,24.98
2016-02-23T06:42:22.060Z,24.95
2016-02-23T06:43:22.046Z,24.91
2016-02-23T06:44:22.018Z,24.83
2016-02-23T06:45:22.021Z,24.87
2016-02-23T06:46:22.038Z,24.82
2016-02-23T06:47:22.010Z,24.79
2016-02-23T06:48:22.435Z,24.8
2016-02-23T06:49:22.359Z,24.79
2016-02-23T06:50:22.081Z,24.73
2016-02-23T06:51:21.912Z,24.77
2016-02-23T06:52:21.882Z,24.76
2016-02-23T06:53:21.839Z,24.75
2016-02-23T06:54:21.685Z,24.68
2016-02-23T06:55:21.719Z,24.75
2016-02-23T06:56:21.816Z,24.69
2016-02-23T06:57:21.787Z,24.75
2016-02-23T06:58:22.008Z,24.76
2016-02-23T06:59:21.856Z,24.76
2016-02-23T07:00:21.733Z,24.71
2016-02-23T07:01:21.719Z,24.73
2016-02-23T07:02:21.831Z,24.68
2016-02-23T07:03:21.678Z,24.63
2016-02-23T07:04:21.540Z,24.64
2016-02-23T07:05:21.637Z,24.68
2016-02-23T07:06:21.624Z,24.73
2016-02-23T07:07:21.611Z,24.64
2016-02-23T07:08:21.582Z,24.61
2016-02-23T07:09:21.570Z,24.68
2016-02-23T07:10:21.541Z,24.61
2016-02-23T07:11:21.527Z,24.69
2016-02-23T07:12:21.515Z,24.64
2016-02-23T07:13:21.486Z,24.63
2016-02-23T07:14:21.474Z,24.56
2016-02-23T07:15:21.460Z,24.54
2016-02-23T07:16:21.432Z,24.6
2016-02-23T07:17:21.435Z,24.59
2016-02-23T07:18:21.406Z,24.56
2016-02-23T07:19:21.393Z,24.6
2016-02-23T07:20:21.458Z,24.64
2016-02-23T07:21:21.351Z,24.64
2016-02-23T07:22:21.324Z,24.67
2016-02-23T07:23:21.388Z,24.61
2016-02-23T07:24:21.312Z,24.69
2016-02-23T07:25:21.300Z,24.63
2016-02-23T07:26:21.271Z,24.57
2016-02-23T07:27:21.258Z,24.6
2016-02-23T07:28:21.229Z,24.59
2016-02-23T07:29:21.217Z,24.6
2016-02-23T07:30:21.189Z,24.61
2016-02-23T07:31:21.176Z,24.57
2016-02-23T07:32:21.148Z,24.59
2016-02-23T07:33:21.134Z,24.6
2016-02-23T07:34:21.120Z,24.54
2016-02-23T07:35:21.124Z,24.52
2016-02-23T07:36:21.095Z,24.56
2016-02-23T07:37:21.067Z,24.68
2016-02-23T07:38:21.038Z,24.61
2016-02-23T07:39:21.259Z,24.61
2016-02-23T07:40:21.028Z,24.54
2016-02-23T07:41:21.015Z,24.68
2016-02-23T07:42:20.971Z,24.6
2016-02-23T07:43:21.005Z,24.6
2016-02-23T07:44:20.961Z,24.68
2016-02-23T07:45:20.932Z,24.68
2016-02-23T07:46:20.902Z,24.59
2016-02-23T07:47:20.890Z,24.68
2016-02-23T07:48:20.956Z,24.68
2016-02-23T07:49:20.880Z,24.56
2016-02-23T07:50:20.836Z,24.57
2016-02-23T07:51:20.807Z,24.5
2016-02-23T07:52:20.826Z,24.54
2016-02-23T07:53:20.813Z,24.57
2016-02-23T07:54:20.768Z,24.53
2016-02-23T07:55:20.740Z,24.54
2016-02-23T07:56:20.774Z,24.54
2016-02-23T07:57:20.746Z,24.56
2016-02-23T07:58:20.685Z,24.57
2016-02-23T07:59:20.767Z,24.5
2016-02-23T08:00:20.645Z,24.63
2016-02-23T08:01:20.678Z,24.67
2016-02-23T08:02:26.868Z,24.56
2016-02-23T08:03:21.028Z,24.61
2016-02-23T08:04:20.967Z,24.63
2016-02-23T08:05:20.938Z,24.67
2016-02-23T08:06:21.206Z,24.61
2016-02-23T08:07:20.694Z,24.57
2016-02-23T08:08:20.916Z,24.57
2016-02-23T08:09:20.809Z,24.64
2016-02-23T08:10:20.780Z,24.68
2016-02-23T08:11:20.517Z,24.57
2016-02-23T08:12:20.520Z,24.61
2016-02-23T08:13:20.913Z,24.56
2016-02-23T08:14:19.682Z,24.59
2016-02-23T08:15:20.387Z,24.61
2016-02-23T08:16:20.421Z,24.56
2016-02-23T08:17:20.346Z,24.53
2016-02-23T08:18:20.771Z,24.59
2016-02-23T08:19:20.305Z,24.47
2016-02-23T08:20:20.338Z,24.56
2016-02-23T08:21:20.544Z,24.57
2016-02-23T08:22:20.594Z,24.59
2016-02-23T08:23:20.362Z,24.59
2016-02-23T08:24:20.927Z,24.59
2016-02-23T08:25:20.337Z,24.67
2016-02-23T08:26:20.198Z,24.68
2016-02-23T08:27:20.529Z,24.76
2016-02-23T08:28:20.234Z,24.71
2016-02-23T08:29:20.129Z,24.8
2016-02-23T08:30:20.178Z,24.88
2016-02-23T08:31:20.415Z,24.9
2016-02-23T08:32:20.167Z,24.91
2016-02-23T08:33:20.077Z,25.01
2016-02-23T08:34:20.095Z,25.02
2016-02-23T08:35:20.441Z,25.02
2016-02-23T08:36:20.210Z,25.1
2016-02-23T08:37:20.259Z,25.06
2016-02-23T08:38:20.012Z,25.2
2016-02-23T08:39:20.155Z,25.19
2016-02-23T08:40:19.970Z,25.24
2016-02-23T08:41:19.926Z,25.25
2016-02-23T08:42:20.179Z,25.25
2016-02-23T08:43:19.900Z,25.37
2016-02-23T08:44:19.872Z,25.37
2016-02-23T08:45:19.844Z,25.46
2016-02-23T08:46:19.924Z,25.35
2016-02-23T08:47:19.817Z,25.38
2016-02-23T08:48:19.992Z,25.39
2016-02-23T08:49:20.119Z,25.37
2016-02-23T08:50:20.044Z,25.37
2016-02-23T08:51:19.937Z,25.3
2016-02-23T08:52:20.034Z,25.2
2016-02-23T08:53:20.068Z,25.27
2016-02-23T08:54:19.696Z,25.16
2016-02-23T08:55:22.682Z,25.06
2016-02-23T08:56:19.701Z,25.09
2016-02-23T08:57:19.829Z,25.01
2016-02-23T08:58:19.862Z,24.97
2016-02-23T08:59:19.599Z,25
2016-02-23T09:00:19.696Z,25
2016-02-23T09:01:19.562Z,24.92
2016-02-23T09:02:19.550Z,24.92
2016-02-23T09:03:19.522Z,24.91
2016-02-23T09:04:19.509Z,24.9
2016-02-23T09:05:19.547Z,24.94
2016-02-23T09:06:19.659Z,24.9
2016-02-23T09:07:19.600Z,24.91
2016-02-23T09:08:19.822Z,24.92
2016-02-23T09:09:19.511Z,24.91
2016-02-23T09:10:19.405Z,24.87
2016-02-23T09:11:19.377Z,24.92
2016-02-23T09:12:19.364Z,24.92
2016-02-23T09:13:19.350Z,24.85
2016-02-23T09:14:19.338Z,24.75
2016-02-23T09:15:19.419Z,24.82
2016-02-23T09:16:19.499Z,24.77
2016-02-23T09:17:19.299Z,24.75
2016-02-23T09:18:19.567Z,24.8
2016-02-23T09:19:19.444Z,24.83
2016-02-23T09:20:19.479Z,24.75
2016-02-23T09:21:19.575Z,24.63
2016-02-23T09:22:19.437Z,24.73
2016-02-23T09:23:19.268Z,24.82
2016-02-23T09:24:19.458Z,24.69
2016-02-23T09:25:19.290Z,24.82
2016-02-23T09:26:19.417Z,24.82
2016-02-23T09:27:19.404Z,24.88
2016-02-23T09:28:19.182Z,24.75
2016-02-23T09:29:19.125Z,24.82
2016-02-23T09:30:19.037Z,24.79
2016-02-23T09:31:19.168Z,24.76
2016-02-23T09:32:19.064Z,24.76
2016-02-23T09:33:19.167Z,24.76
2016-02-23T09:34:19.119Z,24.71
2016-02-23T09:35:19.242Z,24.64
2016-02-23T09:36:19.098Z,24.75
2016-02-23T09:37:19.066Z,24.85
2016-02-23T09:38:19.002Z,24.76
2016-02-23T09:39:19.206Z,24.71
2016-02-23T09:40:18.879Z,24.77
2016-02-23T09:41:18.817Z,24.73
2016-02-23T09:42:18.850Z,24.71
2016-02-23T09:43:18.726Z,24.68
2016-02-23T09:44:18.697Z,24.63
2016-02-23T09:45:18.840Z,24.61
2016-02-23T09:46:21.858Z,24.77
2016-02-23T09:47:18.907Z,24.69
2016-02-23T09:48:18.674Z,24.69
2016-02-23T09:49:18.990Z,24.83
2016-02-23T09:50:18.664Z,24.68
2016-02-23T09:51:18.572Z,24.85
2016-02-23T09:52:18.934Z,24.8
2016-02-23T09:53:18.921Z,24.77
2016-02-23T09:54:18.627Z,24.76
2016-02-23T09:55:18.489Z,24.77
2016-02-23T09:56:18.819Z,24.75
2016-02-23T09:57:18.604Z,24.69
2016-02-23T09:58:18.575Z,24.76
2016-02-23T09:59:21.827Z,24.73
2016-02-23T10:00:18.487Z,24.68
2016-02-23T10:01:18.552Z,24.79
2016-02-23T10:02:18.571Z,24.82
2016-02-23T10:03:18.557Z,24.76
2016-02-23T10:04:18.576Z,24.83
2016-02-23T10:05:18.423Z,24.8
2016-02-23T10:06:18.612Z,24.71
2016-02-23T10:07:19.021Z,24.68
2016-02-23T10:08:18.587Z,24.76
2016-02-23T10:09:18.354Z,24.83
2016-02-23T10:10:18.529Z,24.73
2016-02-23T10:11:21.345Z,24.8
2016-02-23T10:12:18.394Z,24.82
2016-02-23T10:13:18.475Z,24.8
2016-02-23T10:14:18.322Z,24.82
2016-02-23T10:15:18.325Z,24.77
2016-02-23T10:16:18.295Z,24.8
2016-02-23T10:17:18.314Z,24.79
2016-02-23T10:18:18.301Z,24.85
2016-02-23T10:19:18.241Z,24.69
2016-02-23T10:20:18.197Z,24.76
2016-02-23T10:21:18.496Z,24.8
2016-02-23T10:22:18.094Z,24.76
2016-02-23T10:23:18.142Z,24.8
2016-02-23T10:24:18.099Z,24.79
2016-02-23T10:25:18.194Z,24.77
2016-02-23T10:26:21.213Z,24.73
2016-02-23T10:27:18.482Z,24.64
2016-02-23T10:28:18.280Z,24.82
2016-02-23T10:29:18.112Z,24.76
2016-02-23T10:30:17.927Z,24.77
2016-02-23T10:31:18.195Z,24.79
2016-02-23T10:32:18.151Z,24.83
2016-02-23T10:33:18.060Z,24.82
2016-02-23T10:34:18.032Z,24.75
2016-02-23T10:35:17.987Z,24.8
2016-02-23T10:36:17.927Z,24.85
2016-02-23T10:37:18.102Z,24.79
2016-02-23T10:38:17.871Z,24.9
2016-02-23T10:39:17.889Z,24.95
2016-02-23T10:40:17.829Z,24.91
2016-02-23T10:41:17.941Z,24.87
2016-02-23T10:42:18.178Z,24.82
2016-02-23T10:43:17.665Z,24.8
2016-02-23T10:44:17.917Z,24.77
2016-02-23T10:45:17.795Z,24.85
2016-02-23T10:46:17.861Z,24.83
2016-02-23T10:47:17.645Z,24.75
2016-02-23T10:48:17.803Z,24.73
2016-02-23T10:49:17.603Z,24.77
2016-02-23T10:50:17.575Z,24.82
2016-02-23T10:51:17.639Z,24.82
2016-02-23T10:52:17.736Z,24.82
2016-02-23T10:53:17.520Z,24.82
2016-02-23T10:54:17.804Z,24.87
2016-02-23T10:55:17.541Z,24.83
2016-02-23T10:56:17.685Z,24.83
2016-02-23T10:57:17.641Z,24.83
2016-02-23T10:58:17.456Z,24.9
2016-02-23T10:59:17.552Z,24.8
2016-02-23T11:00:17.710Z,24.83
2016-02-23T11:01:17.683Z,24.88
2016-02-23T11:02:17.529Z,24.8
2016-02-23T11:03:17.687Z,24.88
2016-02-23T11:04:17.487Z,24.9
2016-02-23T11:05:17.334Z,24.91
2016-02-23T11:06:17.399Z,24.79
2016-02-23T11:07:17.293Z,24.82
2016-02-23T11:08:17.388Z,24.82
2016-02-23T11:09:17.251Z,24.79
2016-02-23T11:10:17.379Z,24.8
2016-02-23T11:11:17.226Z,24.77
2016-02-23T11:12:17.384Z,24.85
2016-02-23T11:13:17.418Z,24.77
2016-02-23T11:14:17.373Z,24.88
2016-02-23T11:15:17.345Z,24.92
2016-02-23T11:16:17.191Z,24.9
2016-02-23T11:17:17.194Z,24.87
2016-02-23T11:18:17.134Z,24.95
2016-02-23T11:19:17.168Z,24.87
2016-02-23T11:20:17.139Z,24.98
2016-02-23T11:21:17.111Z,24.92
2016-02-23T11:22:17.020Z,24.94
2016-02-23T11:23:17.225Z,24.91
2016-02-23T11:24:16.978Z,24.94
2016-02-23T11:25:17.075Z,24.97
2016-02-23T11:26:17.047Z,24.95
2016-02-23T11:27:17.189Z,24.97
2016-02-23T11:28:17.099Z,24.87
2016-02-23T11:29:16.977Z,24.79
2016-02-23T11:30:17.197Z,24.9
2016-02-23T11:31:26.123Z,24.9
2016-02-23T11:32:16.907Z,24.92
2016-02-23T11:33:16.956Z,24.91
2016-02-23T11:34:16.896Z,24.91
2016-02-23T11:35:17.040Z,24.97
2016-02-23T11:36:16.979Z,25
2016-02-23T11:37:16.780Z,24.94
2016-02-23T11:38:16.985Z,25.01
2016-02-23T11:39:16.879Z,25.01
2016-02-23T11:40:16.646Z,25.02
2016-02-23T11:41:17.071Z,25
2016-02-23T11:42:17.042Z,25.01
2016-02-23T11:43:17.295Z,25.01
2016-02-23T11:44:16.908Z,24.95
2016-02-23T11:45:16.660Z,24.97
2016-02-23T11:46:16.773Z,24.95
2016-02-23T11:47:19.556Z,24.98
2016-02-23T11:48:16.762Z,24.98
2016-02-23T11:49:16.530Z,24.92
2016-02-23T11:50:16.470Z,24.97
2016-02-23T11:51:17.175Z,24.92
2016-02-23T11:52:16.492Z,25.05
2016-02-23T11:53:16.740Z,24.9
2016-02-23T11:54:16.764Z,24.98
2016-02-23T11:55:16.377Z,24.94
2016-02-23T11:56:16.534Z,24.95
2016-02-23T11:57:16.345Z,24.98
2016-02-23T11:58:16.379Z,25.02
2016-02-23T11:59:16.350Z,25.06
2016-02-23T12:00:16.321Z,25
2016-02-23T12:01:16.387Z,24.98
2016-02-23T12:02:16.265Z,25.02
2016-02-23T12:03:16.251Z,25.07
2016-02-23T12:04:16.207Z,25.01
2016-02-23T12:05:16.351Z,25.06
2016-02-23T12:06:16.188Z,25.1
2016-02-23T12:07:16.217Z,25.02
2016-02-23T12:08:16.330Z,25.07
2016-02-23T12:09:16.550Z,25.1
2016-02-23T12:10:16.366Z,25.02
2016-02-23T12:11:16.102Z,25.09
2016-02-23T12:12:16.152Z,25.02
2016-02-23T12:13:16.140Z,25.09
2016-02-23T12:14:16.061Z,25.05
2016-02-23T12:15:15.970Z,25.13
2016-02-23T12:16:16.004Z,25.06
2016-02-23T12:17:16.116Z,25.12
2016-02-23T12:18:16.212Z,25.09
2016-02-23T12:19:16.169Z,25.15
2016-02-23T12:20:16.094Z,25.12
2016-02-23T12:21:15.924Z,25.02
2016-02-23T12:22:15.943Z,25.1
2016-02-23T12:23:15.992Z,25.16
2016-02-23T12:24:15.885Z,25.2
2016-02-23T12:25:15.887Z,25.13
2016-02-23T12:26:15.829Z,25.12
2016-02-23T12:27:15.801Z,25.22
2016-02-23T12:28:16.021Z,25.17
2016-02-23T12:29:15.774Z,25.17
2016-02-23T12:30:15.776Z,25.13
2016-02-23T12:31:15.748Z,25.13
2016-02-23T12:32:15.735Z,25.15
2016-02-23T12:33:15.973Z,25.13
2016-02-23T12:34:15.787Z,25.12
2016-02-23T12:35:15.837Z,25.07
2016-02-23T12:36:16.058Z,25.01
2016-02-23T12:37:15.748Z,25.02
2016-02-23T12:38:15.610Z,25.06
2016-02-23T12:39:15.895Z,25.06
2016-02-23T12:40:15.570Z,25.15
2016-02-23T12:41:15.619Z,25.19
2016-02-23T12:42:15.872Z,25.24
2016-02-23T12:43:15.952Z,25.17
2016-02-23T12:44:15.752Z,25.3
2016-02-23T12:45:15.927Z,25.32
2016-02-23T12:46:15.788Z,25.3
2016-02-23T12:47:16.243Z,25.34
2016-02-23T12:48:15.903Z,25.3
2016-02-23T12:49:15.860Z,25.34
2016-02-23T12:50:15.721Z,25.22
2016-02-23T12:51:15.740Z,25.3
2016-02-23T12:52:15.788Z,25.28
2016-02-23T12:53:15.808Z,25.35
2016-02-23T12:54:15.732Z,25.27
2016-02-23T12:55:15.704Z,25.28
2016-02-23T12:56:18.599Z,25.28